Terminal Aerodrome Forecast
Issued by NWS

Home | Current Version | Previous Version | Text Only | Print | Product List | Glossary On
Versions: 1 2 3 4 5 6 7 8 9 10 11 12 13 14 15 16 17 18 19 20 21 22 23 24 25 26
000
FTUS45 KSLC 282340
TAFPVU
TAF
KPVU 282340Z 2900/2924 24007KT P6SM VCTS SCT090CB BKN140
     FM290200 14006KT P6SM VCSH SCT070 BKN110
     FM290700 13008KT P6SM SCT080 BKN150
     FM291900 16010KT P6SM VCSH SCT060 BKN110
      AMD LTD TO CLD VIS AND WIND=

USA.gov is the U.S. government's official web portal to all federal, state and local government web resources and services.